CheckWX is a tool to help pilots better visualize weather data.  It is not intended as a substitute for an official pre-flight weather briefing.

02:03:06 UTC

USTR TAF
Roshchino International
Tyumen
TAF USTR 182253Z 1900/1924 19005MPS 9999 SCT020 TEMPO 1900/1905 3100 BR FU SCT011 TEMPO 1915/1924 17003MPS 3100 BR FU SCT011

Mar-19@
00:00 UTC

Mar-19 @ 00:00 UTC

Mar-20@
00:00 UTC

Mar-20 @ 00:00 UTC

TAF USTR 182253Z 1900/1924 19005MPS 9999 SCT020
Wind
  • 190° at 10 KTS
Cloud Levels
  • Scattered at 2,000' AGL

Mar-19@
00:00 UTC

Mar-19 @ 00:00 UTC

Mar-19@
05:00 UTC

Mar-19 @ 05:00 UTC

TEMPO 1900/1905 3100 BR FU SCT011

Temporary

Temporary Changes expected for less than half the time period

Conditions
Mist, Smoke
Cloud Levels
  • Scattered at 1,100' AGL

Mar-19@
15:00 UTC

Mar-19 @ 15:00 UTC

Mar-20@
00:00 UTC

Mar-20 @ 00:00 UTC

TEMPO 1915/1924 17003MPS 3100 BR FU SCT011

Temporary

Temporary Changes expected for less than half the time period

Wind
  • 170° at 6 KTS
Conditions
Mist, Smoke
Cloud Levels
  • Scattered at 1,100' AGL